createdAt,value
2019-04-16T00:01:39.462Z,99.90
2019-04-16T00:04:33.776Z,99.90
2019-04-16T00:07:40.490Z,99.90
2019-04-16T00:10:15.660Z,99.90
2019-04-16T00:13:03.301Z,99.90
2019-04-16T00:15:32.739Z,99.90
2019-04-16T00:18:01.935Z,99.90
2019-04-16T00:20:36.682Z,99.90
2019-04-16T00:23:13.168Z,99.90
2019-04-16T00:25:42.371Z,99.90
2019-04-16T00:28:11.605Z,99.90
2019-04-16T00:30:40.906Z,99.90
2019-04-16T00:33:10.686Z,99.90
2019-04-16T00:35:40.720Z,99.90
2019-04-16T00:38:10.009Z,99.90
2019-04-16T00:40:39.228Z,99.90
2019-04-16T00:43:08.424Z,99.90
2019-04-16T00:45:37.647Z,99.90
2019-04-16T00:48:06.846Z,99.90
2019-04-16T00:50:36.084Z,99.90
2019-04-16T00:53:07.613Z,99.90
2019-04-16T00:55:36.142Z,99.90
2019-04-16T00:58:05.527Z,99.90
2019-04-16T01:00:34.736Z,99.90
2019-04-16T01:03:04.132Z,99.90
2019-04-16T01:05:35.288Z,99.90
2019-04-16T01:08:04.181Z,99.90
2019-04-16T01:10:33.433Z,99.90
2019-04-16T01:13:02.861Z,99.90
2019-04-16T01:15:32.796Z,99.90
2019-04-16T01:18:04.803Z,99.90
2019-04-16T01:20:33.560Z,99.90
2019-04-16T01:23:02.748Z,99.90
2019-04-16T01:25:32.058Z,99.90
2019-04-16T01:28:03.704Z,99.90
2019-04-16T01:30:49.096Z,99.90
2019-04-16T01:33:24.773Z,99.90
2019-04-16T01:36:13.045Z,99.90
2019-04-16T01:38:48.085Z,99.90
2019-04-16T01:41:21.659Z,99.90
2019-04-16T01:43:48.964Z,99.90
2019-04-16T01:46:18.148Z,99.90
2019-04-16T01:48:47.384Z,99.90
2019-04-16T01:51:16.605Z,99.90
2019-04-16T01:53:45.836Z,99.90
2019-04-16T01:56:15.138Z,99.90
2019-04-16T01:58:44.367Z,99.90
2019-04-16T02:01:13.564Z,99.90
2019-04-16T02:03:42.762Z,99.90
2019-04-16T02:06:11.980Z,99.90
2019-04-16T02:08:41.196Z,99.90
2019-04-16T02:11:11.382Z,99.90
2019-04-16T02:13:45.707Z,99.90
2019-04-16T02:16:11.568Z,99.90
2019-04-16T02:18:40.955Z,99.90
2019-04-16T02:21:11.183Z,99.90
2019-04-16T02:23:40.652Z,99.90
2019-04-16T02:26:09.836Z,99.90
2019-04-16T02:28:39.040Z,99.90
2019-04-16T02:31:13.742Z,99.90
2019-04-16T02:33:39.111Z,99.90
2019-04-16T02:36:08.267Z,99.90
2019-04-16T02:38:37.497Z,99.90
2019-04-16T02:41:06.699Z,99.90
2019-04-16T02:43:41.064Z,99.90
2019-04-16T02:46:07.006Z,99.90
2019-04-16T02:48:36.204Z,99.90
2019-04-16T02:51:19.669Z,99.90
2019-04-16T02:53:59.740Z,99.90
2019-04-16T02:56:51.571Z,99.90
2019-04-16T02:59:22.357Z,99.90
2019-04-16T03:02:08.055Z,99.90
2019-04-16T03:04:44.224Z,99.90
2019-04-16T03:07:13.434Z,99.90
2019-04-16T03:09:42.626Z,99.90
2019-04-16T03:12:11.851Z,99.90
2019-04-16T03:14:41.063Z,99.90
2019-04-16T03:17:27.966Z,99.90
2019-04-16T03:19:58.436Z,99.90
2019-04-16T03:22:30.397Z,99.90
2019-04-16T03:24:58.468Z,99.90
2019-04-16T03:27:27.783Z,99.90
2019-04-16T03:30:02.963Z,99.90
2019-04-16T03:32:33.214Z,99.90
2019-04-16T03:34:58.685Z,99.90
2019-04-16T03:37:30.275Z,99.90
2019-04-16T03:39:58.849Z,99.90
2019-04-16T03:42:28.189Z,99.90
2019-04-16T03:44:57.568Z,99.90
2019-04-16T03:47:26.750Z,99.90
2019-04-16T03:49:56.362Z,99.90
2019-04-16T03:52:26.955Z,99.90
2019-04-16T03:54:56.167Z,99.90
2019-04-16T03:57:25.348Z,99.90
2019-04-16T03:59:55.047Z,99.90
2019-04-16T04:02:24.267Z,99.90
2019-04-16T04:04:53.403Z,99.90
2019-04-16T04:07:22.737Z,99.90
2019-04-16T04:09:54.637Z,99.90
2019-04-16T04:12:22.768Z,99.90
2019-04-16T04:14:54.397Z,99.90
2019-04-16T04:17:23.364Z,99.90
2019-04-16T04:19:52.562Z,99.90
2019-04-16T04:22:22.786Z,99.90
2019-04-16T04:24:52.650Z,99.90
2019-04-16T04:27:21.872Z,99.90
2019-04-16T04:29:53.652Z,99.90
2019-04-16T04:32:21.953Z,99.90
2019-04-16T04:34:51.152Z,99.90
2019-04-16T04:37:20.386Z,99.90
2019-04-16T04:39:49.536Z,99.90
2019-04-16T04:42:19.589Z,99.90
2019-04-16T04:44:49.058Z,99.90
2019-04-16T04:47:19.670Z,99.90
2019-04-16T04:49:49.128Z,99.90
2019-04-16T04:52:18.319Z,99.90
2019-04-16T04:54:47.511Z,99.90
2019-04-16T04:57:16.922Z,99.90
2019-04-16T04:59:46.155Z,99.90
2019-04-16T05:02:15.803Z,99.90
2019-04-16T05:04:59.665Z,99.90
2019-04-16T05:07:29.409Z,99.90
2019-04-16T05:09:58.676Z,99.90
2019-04-16T05:12:27.892Z,99.90
2019-04-16T05:14:58.633Z,99.90
2019-04-16T05:17:30.091Z,99.90
2019-04-16T05:19:59.283Z,99.90
2019-04-16T05:22:28.531Z,99.90
2019-04-16T05:25:01.282Z,99.90
2019-04-16T05:27:29.462Z,99.90
2019-04-16T05:29:59.319Z,99.90
2019-04-16T05:32:32.962Z,99.90
2019-04-16T05:34:59.386Z,99.90
2019-04-16T05:37:28.643Z,99.90
2019-04-16T05:39:58.970Z,99.90
2019-04-16T05:42:28.663Z,99.90
2019-04-16T05:44:57.896Z,99.90
2019-04-16T05:47:27.104Z,99.90
2019-04-16T05:49:57.875Z,99.90
2019-04-16T05:52:27.169Z,99.90
2019-04-16T05:55:13.547Z,99.90
2019-04-16T05:57:43.011Z,99.90
2019-04-16T06:00:34.708Z,99.90
2019-04-16T06:03:04.015Z,99.90
2019-04-16T06:05:33.245Z,99.90
2019-04-16T06:08:10.269Z,99.90
2019-04-16T06:10:40.183Z,99.90
2019-04-16T06:13:31.488Z,99.90
2019-04-16T06:16:25.633Z,99.90
2019-04-16T06:19:08.472Z,99.90
2019-04-16T06:22:02.136Z,99.90
2019-04-16T06:24:41.522Z,99.90
2019-04-16T06:27:29.827Z,99.90
2019-04-16T06:30:23.988Z,99.90
2019-04-16T06:32:58.972Z,99.90
2019-04-16T06:35:53.060Z,99.90
2019-04-16T06:38:25.012Z,99.90
2019-04-16T06:41:10.793Z,99.90
2019-04-16T06:43:49.847Z,99.90
2019-04-16T06:46:29.652Z,99.90
2019-04-16T06:49:17.806Z,99.90
2019-04-16T06:52:07.571Z,99.90
2019-04-16T06:54:54.501Z,99.90
2019-04-16T06:57:48.590Z,99.90
2019-04-16T07:00:42.656Z,99.90
2019-04-16T07:03:32.603Z,99.90
2019-04-16T07:06:23.773Z,99.90
2019-04-16T07:09:25.798Z,99.90
2019-04-16T07:11:55.029Z,99.90
2019-04-16T07:14:24.521Z,99.90
2019-04-16T07:16:53.751Z,99.90
2019-04-16T07:19:22.954Z,99.90
2019-04-16T07:21:52.142Z,99.90
2019-04-16T07:24:22.904Z,99.90
2019-04-16T07:26:55.943Z,99.90
2019-04-16T07:29:32.741Z,99.90
2019-04-16T07:32:24.657Z,99.90
2019-04-16T07:35:01.541Z,99.90
2019-04-16T07:37:40.399Z,99.90
2019-04-16T07:40:34.531Z,99.90
2019-04-16T07:43:16.051Z,99.90
2019-04-16T07:45:49.905Z,99.90
2019-04-16T07:48:36.907Z,99.90
2019-04-16T07:51:21.606Z,99.90
2019-04-16T07:54:09.876Z,99.90
2019-04-16T07:56:40.727Z,99.90
2019-04-16T07:59:09.917Z,99.90
2019-04-16T08:01:39.231Z,99.90
2019-04-16T08:04:08.448Z,99.90
2019-04-16T08:06:37.748Z,99.90
2019-04-16T08:09:07.749Z,99.80
2019-04-16T08:11:36.951Z,99.00
2019-04-16T08:14:09.840Z,98.50
2019-04-16T08:16:47.140Z,98.10
2019-04-16T08:19:07.959Z,97.70
2019-04-16T08:21:37.216Z,97.00
2019-04-16T08:24:08.064Z,96.90
2019-04-16T08:26:37.295Z,96.40
2019-04-16T08:29:06.599Z,95.20
2019-04-16T08:31:43.476Z,95.00
2019-04-16T08:34:10.262Z,95.00
2019-04-16T08:36:39.508Z,94.60
2019-04-16T08:39:10.379Z,93.80
2019-04-16T08:41:39.600Z,93.40
2019-04-16T08:44:10.293Z,93.10
2019-04-16T08:46:40.314Z,92.70
2019-04-16T08:49:10.495Z,91.90
2019-04-16T08:51:39.695Z,91.80
2019-04-16T08:54:08.915Z,91.60
2019-04-16T08:56:38.127Z,91.50
2019-04-16T08:59:10.051Z,90.50
2019-04-16T09:01:38.255Z,87.90
2019-04-16T09:04:07.452Z,87.30
2019-04-16T09:06:36.704Z,86.30
2019-04-16T09:09:24.709Z,85.40
2019-04-16T09:12:08.123Z,83.20
2019-04-16T09:14:40.433Z,81.60
2019-04-16T09:17:18.568Z,83.10
2019-04-16T09:19:54.144Z,82.60
2019-04-16T09:22:23.371Z,79.30
2019-04-16T09:25:00.135Z,76.60
2019-04-16T09:27:35.067Z,72.80
2019-04-16T09:30:22.215Z,71.10
2019-04-16T09:33:16.395Z,70.50
2019-04-16T09:35:52.915Z,69.40
2019-04-16T09:38:44.927Z,67.60
2019-04-16T09:41:14.491Z,69.00
2019-04-16T09:43:46.334Z,71.10
2019-04-16T09:46:21.081Z,69.20
2019-04-16T09:48:49.783Z,65.80
2019-04-16T09:51:20.544Z,64.20
2019-04-16T09:53:48.268Z,63.40
2019-04-16T09:56:29.049Z,63.40
2019-04-16T09:59:01.626Z,61.60
2019-04-16T10:01:36.429Z,62.10
2019-04-16T10:04:06.319Z,59.90
2019-04-16T10:06:35.600Z,60.70
2019-04-16T10:09:06.140Z,61.70
2019-04-16T10:11:35.747Z,62.90
2019-04-16T10:14:06.341Z,58.30
2019-04-16T10:16:35.603Z,57.00
2019-04-16T10:19:07.868Z,56.70
2019-04-16T10:21:35.684Z,56.30
2019-04-16T10:24:35.928Z,56.90
2019-04-16T10:27:05.703Z,56.70
2019-04-16T10:29:35.240Z,54.90
2019-04-16T10:32:04.520Z,54.30
2019-04-16T10:34:36.338Z,55.90
2019-04-16T10:37:04.611Z,56.00
2019-04-16T10:39:46.418Z,53.60
2019-04-16T10:42:40.919Z,53.20
2019-04-16T10:45:29.305Z,54.40
2019-04-16T10:48:23.845Z,54.60
2019-04-16T10:51:06.729Z,54.10
2019-04-16T10:53:55.340Z,52.00
2019-04-16T10:56:41.584Z,52.00
2019-04-16T10:59:28.464Z,52.50
2019-04-16T11:02:15.599Z,50.40
2019-04-16T11:05:19.065Z,50.30
2019-04-16T11:07:47.704Z,49.00
2019-04-16T11:10:17.304Z,47.70
2019-04-16T11:12:46.583Z,47.40
2019-04-16T11:15:20.003Z,46.90
2019-04-16T11:17:49.218Z,46.30
2019-04-16T11:20:18.387Z,46.30
2019-04-16T11:22:47.668Z,46.00
2019-04-16T11:25:16.941Z,46.00
2019-04-16T11:27:46.155Z,45.60
2019-04-16T11:30:30.511Z,44.80
2019-04-16T11:33:00.110Z,44.80
2019-04-16T11:35:29.384Z,43.60
2019-04-16T11:37:58.572Z,43.60
2019-04-16T11:40:27.788Z,42.50
2019-04-16T11:42:56.998Z,42.80
2019-04-16T11:45:26.327Z,43.00
2019-04-16T11:47:55.522Z,42.90
2019-04-16T11:50:24.744Z,42.90
2019-04-16T11:52:57.236Z,43.30
2019-04-16T11:55:25.292Z,42.70
2019-04-16T11:57:54.475Z,43.50
2019-04-16T12:00:34.047Z,42.60
2019-04-16T12:03:12.565Z,41.70
2019-04-16T12:05:58.363Z,42.00
2019-04-16T12:08:43.529Z,41.40
2019-04-16T12:11:20.661Z,41.60
2019-04-16T12:14:29.533Z,42.70
2019-04-16T12:17:07.449Z,42.00
2019-04-16T12:19:54.623Z,42.10
2019-04-16T12:22:42.923Z,42.50
2019-04-16T12:25:20.918Z,42.50
2019-04-16T12:28:21.293Z,41.60
2019-04-16T12:31:16.080Z,40.60
2019-04-16T12:33:51.129Z,40.20
2019-04-16T12:36:45.497Z,39.90
2019-04-16T12:39:35.555Z,39.30
2019-04-16T12:42:22.405Z,39.10
2019-04-16T12:44:54.647Z,37.50
2019-04-16T12:47:42.975Z,36.60
2019-04-16T12:50:34.847Z,36.10
2019-04-16T12:53:13.875Z,35.50
2019-04-16T12:56:05.932Z,34.10
2019-04-16T12:59:06.523Z,33.70
2019-04-16T13:01:43.916Z,33.30
2019-04-16T13:04:30.316Z,33.10
2019-04-16T13:07:07.091Z,32.90
2019-04-16T13:09:54.350Z,32.50
2019-04-16T13:12:48.745Z,32.00
2019-04-16T13:15:43.048Z,31.60
2019-04-16T13:18:30.411Z,31.20
2019-04-16T13:21:27.746Z,30.50
2019-04-16T13:24:06.382Z,30.50
2019-04-16T13:26:42.869Z,31.20
2019-04-16T13:29:17.539Z,32.10
2019-04-16T13:31:46.851Z,32.20
2019-04-16T13:34:18.630Z,31.70
2019-04-16T13:36:47.263Z,31.50
2019-04-16T13:39:40.055Z,30.60
2019-04-16T13:42:07.689Z,30.00
2019-04-16T13:44:41.257Z,30.00
2019-04-16T13:47:10.639Z,29.70
2019-04-16T13:49:45.505Z,29.40
2019-04-16T13:52:17.059Z,29.20
2019-04-16T13:55:10.092Z,29.90
2019-04-16T13:57:39.904Z,29.90
2019-04-16T14:00:33.645Z,29.80
2019-04-16T14:03:05.763Z,29.50
2019-04-16T14:05:38.408Z,30.20
2019-04-16T14:08:06.113Z,30.70
2019-04-16T14:10:35.528Z,31.20
2019-04-16T14:13:04.708Z,30.50
2019-04-16T14:15:40.302Z,31.10
2019-04-16T14:18:06.770Z,31.50
2019-04-16T14:20:36.036Z,31.40
2019-04-16T14:23:05.243Z,30.90
2019-04-16T14:25:34.724Z,31.40
2019-04-16T14:28:04.313Z,30.50
2019-04-16T14:30:42.694Z,30.40
2019-04-16T14:33:15.232Z,30.40
2019-04-16T14:35:44.431Z,30.00
2019-04-16T14:38:16.166Z,31.30
2019-04-16T14:40:45.574Z,31.30
2019-04-16T14:43:17.027Z,30.80
2019-04-16T14:45:58.209Z,31.00
2019-04-16T14:48:19.611Z,31.00
2019-04-16T14:50:48.864Z,31.10
2019-04-16T14:53:33.780Z,31.10
2019-04-16T14:56:37.584Z,31.10
2019-04-16T14:59:30.279Z,30.90
2019-04-16T15:02:00.954Z,31.20
2019-04-16T15:04:34.908Z,31.20
2019-04-16T15:07:22.102Z,30.80
2019-04-16T15:10:09.299Z,30.70
2019-04-16T15:12:55.711Z,31.20
2019-04-16T15:15:41.009Z,31.20
2019-04-16T15:18:32.736Z,31.10
2019-04-16T15:21:19.747Z,31.20
2019-04-16T15:24:03.293Z,32.00
2019-04-16T15:26:53.374Z,31.90
2019-04-16T15:29:41.864Z,32.00
2019-04-16T15:32:28.739Z,32.30
2019-04-16T15:34:58.035Z,33.40
2019-04-16T15:37:35.269Z,33.90
2019-04-16T15:40:09.047Z,34.50
2019-04-16T15:42:55.308Z,34.00
2019-04-16T15:45:55.882Z,33.80
2019-04-16T15:48:44.127Z,33.90
2019-04-16T15:51:21.092Z,33.70
2019-04-16T15:54:08.801Z,34.10
2019-04-16T15:57:00.143Z,34.20
2019-04-16T15:59:41.196Z,35.20
2019-04-16T16:02:37.820Z,36.10
2019-04-16T16:05:23.095Z,36.80
2019-04-16T16:08:02.240Z,37.60
2019-04-16T16:10:36.747Z,37.90
2019-04-16T16:13:05.939Z,37.90
2019-04-16T16:15:40.160Z,38.10
2019-04-16T16:18:05.992Z,37.60
2019-04-16T16:20:35.171Z,37.70
2019-04-16T16:23:04.414Z,37.60
2019-04-16T16:25:33.720Z,38.10
2019-04-16T16:28:03.146Z,38.30
2019-04-16T16:30:32.423Z,38.80
2019-04-16T16:33:01.636Z,39.50
2019-04-16T16:35:34.498Z,39.70
2019-04-16T16:38:01.744Z,39.70
2019-04-16T16:40:30.965Z,40.00
2019-04-16T16:43:00.283Z,40.40
2019-04-16T16:45:44.220Z,41.00
2019-04-16T16:48:13.428Z,41.00
2019-04-16T16:50:44.090Z,41.30
2019-04-16T16:53:28.655Z,41.00
2019-04-16T16:56:01.184Z,41.20
2019-04-16T16:58:52.825Z,41.10
2019-04-16T17:01:39.740Z,41.20
2019-04-16T17:04:28.231Z,40.70
2019-04-16T17:06:58.065Z,41.30
2019-04-16T17:09:31.241Z,41.90
2019-04-16T17:12:01.220Z,42.60
2019-04-16T17:14:30.636Z,42.70
2019-04-16T17:17:13.010Z,42.80
2019-04-16T17:19:32.732Z,43.40
2019-04-16T17:22:02.534Z,43.80
2019-04-16T17:24:32.065Z,44.30
2019-04-16T17:27:02.055Z,44.50
2019-04-16T17:29:31.984Z,44.90
2019-04-16T17:32:05.001Z,44.90
2019-04-16T17:34:38.824Z,44.80
2019-04-16T17:37:06.696Z,45.00
2019-04-16T17:39:56.643Z,45.10
2019-04-16T17:42:29.686Z,45.30
2019-04-16T17:45:24.420Z,45.50
2019-04-16T17:48:18.104Z,45.70
2019-04-16T17:51:07.160Z,45.70
2019-04-16T17:53:45.572Z,46.50
2019-04-16T17:56:32.744Z,46.10
2019-04-16T17:59:05.528Z,46.50
2019-04-16T18:01:52.463Z,46.70
2019-04-16T18:04:31.344Z,46.70
2019-04-16T18:07:19.641Z,46.80
2019-04-16T18:10:11.383Z,47.00
2019-04-16T18:12:57.304Z,47.00
2019-04-16T18:15:45.771Z,47.30
2019-04-16T18:18:23.306Z,47.40
2019-04-16T18:20:59.376Z,47.60
2019-04-16T18:23:47.597Z,47.80
2019-04-16T18:26:32.592Z,47.80
2019-04-16T18:29:19.680Z,48.10
2019-04-16T18:32:23.228Z,48.30
2019-04-16T18:35:00.016Z,48.30
2019-04-16T18:37:49.605Z,48.60
2019-04-16T18:40:47.399Z,48.80
2019-04-16T18:43:35.685Z,48.90
2019-04-16T18:46:36.027Z,49.00
2019-04-16T18:49:08.897Z,49.10
2019-04-16T18:51:38.161Z,49.40
2019-04-16T18:54:07.465Z,49.50
2019-04-16T18:56:36.687Z,49.60
2019-04-16T18:59:05.872Z,49.70
2019-04-16T19:01:35.519Z,49.90
2019-04-16T19:04:04.756Z,50.00
2019-04-16T19:06:33.955Z,50.10
2019-04-16T19:09:03.182Z,50.30
2019-04-16T19:11:32.405Z,50.50
2019-04-16T19:14:01.636Z,50.60
2019-04-16T19:16:31.021Z,50.70
2019-04-16T19:19:00.220Z,50.90
2019-04-16T19:21:29.516Z,51.10
2019-04-16T19:23:58.707Z,51.20
2019-04-16T19:26:30.193Z,51.30
2019-04-16T19:28:58.780Z,51.40
2019-04-16T19:31:28.006Z,51.40
2019-04-16T19:33:57.363Z,51.60
2019-04-16T19:36:27.522Z,51.80
2019-04-16T19:38:56.990Z,52.00
2019-04-16T19:41:26.332Z,52.10
2019-04-16T19:43:55.840Z,52.20
2019-04-16T19:46:25.167Z,52.30
2019-04-16T19:48:56.710Z,52.50
2019-04-16T19:51:25.348Z,52.60
2019-04-16T19:53:55.407Z,52.70
2019-04-16T19:56:24.635Z,52.80
2019-04-16T19:58:53.876Z,53.00
2019-04-16T20:01:23.109Z,53.00
2019-04-16T20:03:52.307Z,53.20
2019-04-16T20:06:25.243Z,53.20
2019-04-16T20:08:52.462Z,53.50
2019-04-16T20:11:21.812Z,53.60
2019-04-16T20:13:51.016Z,53.70
2019-04-16T20:16:20.269Z,53.90
2019-04-16T20:18:51.162Z,53.90
2019-04-16T20:21:20.298Z,54.00
2019-04-16T20:23:49.523Z,54.20
2019-04-16T20:26:18.739Z,54.40
2019-04-16T20:28:48.580Z,54.50
2019-04-16T20:31:18.544Z,54.60
2019-04-16T20:33:47.770Z,54.90
2019-04-16T20:36:22.411Z,55.10
2019-04-16T20:38:47.984Z,55.30
2019-04-16T20:41:18.984Z,55.40
2019-04-16T20:43:48.037Z,55.60
2019-04-16T20:46:17.247Z,55.70
2019-04-16T20:48:46.468Z,55.80
2019-04-16T20:51:15.696Z,55.90
2019-04-16T20:53:44.880Z,56.20
2019-04-16T20:56:19.967Z,56.30
2019-04-16T20:58:45.177Z,56.50
2019-04-16T21:01:15.255Z,56.70
2019-04-16T21:03:46.109Z,56.90
2019-04-16T21:06:15.566Z,57.00
2019-04-16T21:08:44.731Z,57.20
2019-04-16T21:11:13.939Z,57.40
2019-04-16T21:13:43.243Z,57.70
2019-04-16T21:16:12.396Z,57.90
2019-04-16T21:18:41.602Z,58.20
2019-04-16T21:21:10.812Z,58.40
2019-04-16T21:23:39.995Z,58.70
2019-04-16T21:26:09.269Z,58.80
2019-04-16T21:28:58.243Z,59.00
2019-04-16T21:31:32.127Z,59.20
2019-04-16T21:34:24.907Z,59.40
2019-04-16T21:37:11.764Z,59.70
2019-04-16T21:39:47.339Z,59.90
2019-04-16T21:42:17.940Z,60.50
2019-04-16T21:44:47.157Z,60.70
2019-04-16T21:47:16.404Z,61.10
2019-04-16T21:49:45.963Z,61.40
2019-04-16T21:52:15.219Z,61.70
2019-04-16T21:54:44.415Z,62.20
2019-04-16T21:57:14.415Z,62.70
2019-04-16T21:59:43.649Z,63.00
2019-04-16T22:02:27.493Z,63.50
2019-04-16T22:04:56.725Z,64.10
2019-04-16T22:07:26.091Z,64.60
2019-04-16T22:09:55.870Z,65.10
2019-04-16T22:12:25.203Z,65.80
2019-04-16T22:14:55.341Z,66.40
2019-04-16T22:17:25.136Z,67.00
2019-04-16T22:20:00.817Z,67.50
2019-04-16T22:22:27.642Z,68.20
2019-04-16T22:24:56.381Z,69.00
2019-04-16T22:27:25.739Z,69.60
2019-04-16T22:29:55.043Z,70.10
2019-04-16T22:32:27.130Z,70.80
2019-04-16T22:34:55.203Z,71.60
2019-04-16T22:37:24.440Z,72.30
2019-04-16T22:40:22.507Z,73.20
2019-04-16T22:43:24.755Z,73.90
2019-04-16T22:45:58.766Z,74.80
2019-04-16T22:48:27.994Z,75.70
2019-04-16T22:50:57.378Z,76.40
2019-04-16T22:53:26.687Z,77.20
2019-04-16T22:55:56.688Z,78.00
2019-04-16T22:58:46.004Z,78.50
2019-04-16T23:01:15.605Z,78.90
2019-04-16T23:03:45.031Z,79.50
2019-04-16T23:06:14.227Z,80.80
2019-04-16T23:08:44.237Z,80.30
2019-04-16T23:11:13.524Z,80.50
2019-04-16T23:13:42.731Z,81.00
2019-04-16T23:16:12.024Z,81.40
2019-04-16T23:18:41.214Z,81.80
2019-04-16T23:21:11.441Z,82.30
2019-04-16T23:23:41.190Z,83.20
2019-04-16T23:26:10.435Z,83.40
2019-04-16T23:28:42.224Z,83.90
2019-04-16T23:31:10.703Z,84.50
2019-04-16T23:33:39.915Z,85.00
2019-04-16T23:36:09.104Z,85.50
2019-04-16T23:38:38.307Z,86.00
2019-04-16T23:41:07.666Z,86.30
2019-04-16T23:44:01.680Z,86.70
2019-04-16T23:46:55.993Z,87.20
2019-04-16T23:49:39.287Z,87.40
2019-04-16T23:52:17.707Z,87.80
2019-04-16T23:55:02.059Z,88.10
2019-04-16T23:57:36.920Z,88.70
